createdAt,value
2018-11-12T00:02:48.010Z,12.05
2018-11-12T00:07:54.368Z,12.10
2018-11-12T00:12:58.512Z,12.13
2018-11-12T00:18:02.980Z,12.14
2018-11-12T00:23:06.962Z,12.14
2018-11-12T00:28:11.166Z,12.21
2018-11-12T00:33:15.128Z,12.27
2018-11-12T00:38:19.524Z,12.35
2018-11-12T00:43:23.485Z,12.42
2018-11-12T00:48:28.570Z,12.51
2018-11-12T00:53:33.083Z,12.60
2018-11-12T00:58:37.929Z,12.67
2018-11-12T01:03:42.189Z,12.76
2018-11-12T01:08:46.394Z,12.81
2018-11-12T01:13:50.566Z,12.88
2018-11-12T01:18:54.863Z,12.93
2018-11-12T01:23:58.840Z,12.94
2018-11-12T01:29:10.295Z,12.95
2018-11-12T01:34:15.496Z,12.92
2018-11-12T01:39:25.720Z,12.76
2018-11-12T01:44:31.905Z,12.68
2018-11-12T01:49:37.696Z,12.58
2018-11-12T01:54:44.187Z,12.50
2018-11-12T01:59:48.696Z,12.44
2018-11-12T02:04:53.201Z,12.37
2018-11-12T02:09:57.220Z,12.31
2018-11-12T02:15:03.995Z,12.22
2018-11-12T02:20:12.504Z,12.16
2018-11-12T02:25:16.854Z,12.07
2018-11-12T02:30:26.242Z,12.02
2018-11-12T02:35:30.057Z,12.00
2018-11-12T02:40:33.974Z,11.89
2018-11-12T02:45:38.670Z,11.77
2018-11-12T02:50:42.498Z,11.68
2018-11-12T02:55:46.326Z,11.60
2018-11-12T03:00:50.394Z,11.56
2018-11-12T03:05:54.278Z,11.60
2018-11-12T03:10:58.281Z,11.60
2018-11-12T03:16:02.605Z,11.53
2018-11-12T03:21:09.265Z,11.50
2018-11-12T03:26:13.334Z,11.46
2018-11-12T03:31:23.799Z,11.39
2018-11-12T03:36:31.265Z,11.33
2018-11-12T03:41:35.666Z,11.32
2018-11-12T03:46:39.835Z,11.31
2018-11-12T03:51:43.989Z,11.33
2018-11-12T03:56:48.102Z,11.15
2018-11-12T04:01:52.075Z,10.86
2018-11-12T04:06:56.405Z,10.80
2018-11-12T04:12:00.345Z,10.86
2018-11-12T04:17:04.647Z,10.86
2018-11-12T04:22:08.505Z,10.87
2018-11-12T04:27:12.586Z,10.82
2018-11-12T04:32:16.684Z,10.80
2018-11-12T04:37:23.317Z,10.67
2018-11-12T04:42:27.655Z,10.65
2018-11-12T04:47:31.745Z,10.62
2018-11-12T04:52:35.703Z,10.58
2018-11-12T04:57:41.104Z,10.60
2018-11-12T05:02:45.562Z,10.60
2018-11-12T05:07:52.929Z,10.58
2018-11-12T05:12:56.991Z,10.60
2018-11-12T05:18:01.799Z,10.58
2018-11-12T05:23:05.844Z,10.54
2018-11-12T05:28:09.991Z,10.53
2018-11-12T05:33:14.284Z,10.60
2018-11-12T05:38:24.392Z,10.65
2018-11-12T05:43:40.321Z,10.60
2018-11-12T05:48:59.143Z,10.55
2018-11-12T05:54:10.396Z,10.53
2018-11-12T05:59:14.931Z,10.55
2018-11-12T06:20:44.491Z,10.54
2018-11-12T06:25:48.454Z,10.58
2018-11-12T06:30:52.213Z,10.70
2018-11-12T06:35:56.077Z,10.82
2018-11-12T06:41:00.066Z,10.85
2018-11-12T06:46:04.218Z,10.90
2018-11-12T06:51:07.921Z,11.03
2018-11-12T06:56:11.859Z,11.17
2018-11-12T07:01:15.705Z,11.32
2018-11-12T07:06:19.788Z,11.31
2018-11-12T07:11:23.820Z,11.31
2018-11-12T07:16:27.608Z,11.30
2018-11-12T07:21:31.631Z,11.33
2018-11-12T07:26:35.515Z,11.35
2018-11-12T07:42:54.703Z,11.93
2018-11-12T07:47:58.903Z,11.97
2018-11-12T07:53:03.310Z,11.99
2018-11-12T07:58:06.896Z,11.98
2018-11-12T08:25:15.908Z,12.17
2018-11-12T08:30:21.488Z,12.24
2018-11-12T08:35:26.738Z,12.25
2018-11-12T08:40:31.360Z,12.36
2018-11-12T08:51:25.723Z,12.49
2018-11-12T08:56:29.392Z,12.73
2018-11-12T09:01:33.502Z,13.03
2018-11-12T09:06:37.737Z,13.24
2018-11-12T09:11:41.506Z,13.35
2018-11-12T09:16:44.834Z,13.37
2018-11-12T09:21:48.250Z,13.32
2018-11-12T09:26:51.614Z,13.31
2018-11-12T09:31:55.140Z,13.50
2018-11-12T09:36:59.862Z,13.79
2018-11-12T09:42:04.012Z,13.92
2018-11-12T09:47:07.730Z,14.55
2018-11-12T09:52:11.454Z,14.92
2018-11-12T09:57:14.864Z,15.03
2018-11-12T10:02:19.109Z,15.28
2018-11-12T10:07:23.262Z,15.82
2018-11-12T10:12:27.311Z,15.84
2018-11-12T10:17:31.556Z,15.79
2018-11-12T10:22:32.127Z,15.99
2018-11-12T10:27:35.417Z,15.92
2018-11-12T10:32:38.909Z,16.26
2018-11-12T10:37:42.759Z,16.53
2018-11-12T10:42:46.418Z,17.01
2018-11-12T10:47:50.853Z,17.66
2018-11-12T10:52:54.176Z,18.04
2018-11-12T10:57:57.658Z,18.30
2018-11-12T11:03:08.454Z,18.60
2018-11-12T11:08:11.991Z,19.07
2018-11-12T11:13:16.732Z,21.77
2018-11-12T11:18:21.116Z,28.13
2018-11-12T11:23:25.914Z,30.64
2018-11-12T11:28:31.369Z,31.69
2018-11-12T11:33:42.128Z,32.65
2018-11-12T11:38:46.131Z,31.41
2018-11-12T11:43:51.535Z,31.21
2018-11-12T11:48:55.399Z,32.60
2018-11-12T11:54:01.923Z,35.21
2018-11-12T11:59:06.748Z,36.25
2018-11-12T12:04:12.999Z,35.31
2018-11-12T12:09:19.627Z,35.45
2018-11-12T12:14:25.219Z,30.99
2018-11-12T12:19:30.928Z,29.28
2018-11-12T12:24:38.832Z,30.10
2018-11-12T12:29:46.676Z,32.81
2018-11-12T12:34:53.947Z,31.87
2018-11-12T12:39:57.647Z,28.83
2018-11-12T12:45:01.463Z,27.12
2018-11-12T12:50:06.067Z,28.81
2018-11-12T12:55:13.304Z,24.43
2018-11-12T13:00:22.348Z,22.85
2018-11-12T13:05:28.282Z,22.40
2018-11-12T13:10:34.586Z,25.83
2018-11-12T13:15:42.443Z,27.75
2018-11-12T13:20:50.547Z,23.94
2018-11-12T13:25:55.749Z,22.74
2018-11-12T13:31:00.144Z,22.18
2018-11-12T13:36:05.799Z,21.77
2018-11-12T13:41:10.050Z,21.39
2018-11-12T13:46:13.526Z,21.26
2018-11-12T13:51:17.422Z,20.93
2018-11-12T13:56:20.756Z,20.75
2018-11-12T14:01:24.539Z,20.45
2018-11-12T14:06:29.217Z,20.18
2018-11-12T14:11:32.585Z,19.89
2018-11-12T14:16:36.113Z,19.69
2018-11-12T14:21:39.919Z,19.62
2018-11-12T14:26:43.024Z,19.50
2018-11-12T14:31:46.399Z,19.31
2018-11-12T14:36:49.719Z,19.10
2018-11-12T14:41:53.130Z,18.89
2018-11-12T14:46:56.415Z,18.71
2018-11-12T14:51:59.702Z,18.56
2018-11-12T14:57:03.036Z,18.43
2018-11-12T15:02:06.409Z,18.29
2018-11-12T15:07:09.726Z,18.10
2018-11-12T15:12:13.368Z,17.94
2018-11-12T15:17:16.842Z,17.78
2018-11-12T15:22:21.955Z,17.59
2018-11-12T15:27:25.835Z,17.44
2018-11-12T15:32:29.468Z,17.30
2018-11-12T15:37:34.581Z,17.18
2018-11-12T15:48:39.863Z,16.93
2018-11-12T16:10:51.473Z,16.54
2018-11-12T16:16:16.175Z,16.43
2018-11-12T16:21:21.234Z,16.28
2018-11-12T16:26:25.136Z,16.22
2018-11-12T16:31:29.238Z,16.11
2018-11-12T16:36:33.057Z,16.07
2018-11-12T16:41:36.831Z,16.05
2018-11-12T16:46:41.726Z,16.05
2018-11-12T16:51:45.549Z,15.92
2018-11-12T16:56:49.152Z,15.85
2018-11-12T17:01:52.887Z,15.78
2018-11-12T17:06:56.794Z,15.70
2018-11-12T17:12:00.243Z,15.65
2018-11-12T17:17:03.803Z,15.64
2018-11-12T17:22:07.565Z,15.58
2018-11-12T17:27:11.616Z,15.56
2018-11-12T17:32:15.118Z,15.46
2018-11-12T17:37:18.613Z,15.42
2018-11-12T17:42:22.489Z,15.30
2018-11-12T17:47:26.076Z,15.33
2018-11-12T17:52:29.798Z,15.27
2018-11-12T17:57:33.255Z,15.20
2018-11-12T18:02:36.672Z,15.13
2018-11-12T18:07:40.988Z,15.14
2018-11-12T18:12:44.328Z,15.15
2018-11-12T18:17:48.033Z,15.09
2018-11-12T18:22:52.280Z,15.06
2018-11-12T18:27:56.494Z,15.03
2018-11-12T18:33:00.322Z,14.94
2018-11-12T18:38:04.129Z,14.89
2018-11-12T18:43:07.929Z,14.78
2018-11-12T18:48:11.483Z,14.68
2018-11-12T18:53:15.148Z,14.61
2018-11-12T18:58:18.796Z,14.59
2018-11-12T19:03:22.406Z,14.54
2018-11-12T19:08:26.086Z,14.54
2018-11-12T19:13:29.777Z,14.46
2018-11-12T19:18:34.222Z,14.42
2018-11-12T19:23:38.188Z,14.39
2018-11-12T19:28:41.599Z,14.37
2018-11-12T19:33:45.333Z,14.29
2018-11-12T19:38:48.972Z,14.20
2018-11-12T19:43:52.714Z,14.09
2018-11-12T19:48:56.479Z,13.99
2018-11-12T19:54:00.897Z,14.13
2018-11-12T19:59:04.878Z,14.04
2018-11-12T20:04:08.716Z,14.00
2018-11-12T20:09:12.510Z,13.91
2018-11-12T20:14:16.159Z,13.85
2018-11-12T20:19:19.785Z,13.75
2018-11-12T20:24:23.122Z,13.75
2018-11-12T20:29:27.074Z,13.74
2018-11-12T20:34:30.690Z,13.72
2018-11-12T20:39:34.005Z,13.65
2018-11-12T20:44:37.392Z,13.68
2018-11-12T20:49:41.131Z,13.69
2018-11-12T20:54:44.447Z,13.63
2018-11-12T20:59:47.867Z,13.65
2018-11-12T21:04:51.425Z,13.60
2018-11-12T21:09:54.878Z,13.59
2018-11-12T21:14:58.257Z,13.51
2018-11-12T21:20:01.628Z,13.46
2018-11-12T21:25:05.644Z,13.48
2018-11-12T21:30:11.405Z,13.50
2018-11-12T21:35:14.760Z,13.44
2018-11-12T21:40:19.524Z,13.47
2018-11-12T21:45:26.414Z,13.43
2018-11-12T21:50:29.848Z,13.34
2018-11-12T21:55:33.260Z,13.29
2018-11-12T22:00:36.689Z,13.28
2018-11-12T22:05:40.166Z,13.20
2018-11-12T22:10:43.548Z,13.22
2018-11-12T22:15:46.957Z,13.26
2018-11-12T22:20:50.587Z,13.27
2018-11-12T22:25:53.969Z,13.36
2018-11-12T22:30:57.402Z,13.35
2018-11-12T22:36:01.040Z,13.44
2018-11-12T22:41:04.534Z,13.51
2018-11-12T22:46:08.077Z,13.62
2018-11-12T22:51:11.430Z,13.68
2018-11-12T22:56:14.837Z,13.71
2018-11-12T23:01:18.219Z,13.68
2018-11-12T23:06:21.617Z,13.72
2018-11-12T23:11:24.992Z,13.62
2018-11-12T23:16:28.428Z,13.61
2018-11-12T23:21:31.755Z,13.62
2018-11-12T23:26:35.324Z,13.65
2018-11-12T23:31:38.832Z,13.64
2018-11-12T23:36:42.178Z,13.66
2018-11-12T23:41:45.509Z,13.65
2018-11-12T23:46:49.000Z,13.73
2018-11-12T23:51:52.513Z,13.78
2018-11-12T23:56:56.069Z,13.78
